Terminal Aerodrome Forecast
Issued by NWS

Home | Current Version | Previous Version | Text Only | Print | Product List | Glossary On
Versions: 1 2 3 4 5 6 7 8 9 10 11 12 13
784
FTUS42 KMLB 220539
TAFISM
TAF
KISM 220539Z 2206/2306 17004KT P6SM BKN045 OVC060
     FM220800 19008KT P6SM SCT010 BKN035 WS015/22033KT
     FM221300 20015G25KT P6SM SCT015 BKN035
     FM221900 21020G30KT P6SM VCTS BKN035CB
      TEMPO 2221/2223 25020G40KT 2SM +TSRA
     FM230000 23015G25KT P6SM -RA VCTS BKN035CB=

USA.gov is the U.S. government's official web portal to all federal, state and local government web resources and services.